sensor_id;sensor_type;location;lat;lon;timestamp;temperature;humidity
26278;DHT22;14000;52.056;8.510;2023-07-31T00:00:11;15.30;99.90
26278;DHT22;14000;52.056;8.510;2023-07-31T00:02:37;15.30;99.90
26278;DHT22;14000;52.056;8.510;2023-07-31T00:05:03;15.40;99.90
26278;DHT22;14000;52.056;8.510;2023-07-31T00:07:29;15.30;99.90
26278;DHT22;14000;52.056;8.510;2023-07-31T00:09:54;15.30;99.90
26278;DHT22;14000;52.056;8.510;2023-07-31T00:12:22;15.40;99.90
26278;DHT22;14000;52.056;8.510;2023-07-31T00:14:47;15.40;99.90
26278;DHT22;14000;52.056;8.510;2023-07-31T00:17:13;15.40;99.90
26278;DHT22;14000;52.056;8.510;2023-07-31T00:19:38;15.50;99.90
26278;DHT22;14000;52.056;8.510;2023-07-31T00:22:07;15.40;99.90
26278;DHT22;14000;52.056;8.510;2023-07-31T00:24:32;15.40;99.90
26278;DHT22;14000;52.056;8.510;2023-07-31T00:26:58;15.40;99.90
26278;DHT22;14000;52.056;8.510;2023-07-31T00:29:23;15.40;99.90
26278;DHT22;14000;52.056;8.510;2023-07-31T00:31:49;15.40;99.90
26278;DHT22;14000;52.056;8.510;2023-07-31T00:34:14;15.40;99.90
26278;DHT22;14000;52.056;8.510;2023-07-31T00:36:40;15.50;99.90
26278;DHT22;14000;52.056;8.510;2023-07-31T00:39:06;15.40;99.90
26278;DHT22;14000;52.056;8.510;2023-07-31T00:41:31;15.40;99.90
26278;DHT22;14000;52.056;8.510;2023-07-31T00:43:57;15.50;99.90
26278;DHT22;14000;52.056;8.510;2023-07-31T00:46:23;15.50;99.90
26278;DHT22;14000;52.056;8.510;2023-07-31T00:48:49;15.50;99.90
26278;DHT22;14000;52.056;8.510;2023-07-31T00:51:15;15.40;99.90
26278;DHT22;14000;52.056;8.510;2023-07-31T00:53:41;15.40;99.90
26278;DHT22;14000;52.056;8.510;2023-07-31T00:56:07;15.40;99.90
26278;DHT22;14000;52.056;8.510;2023-07-31T00:58:33;15.40;99.90
26278;DHT22;14000;52.056;8.510;2023-07-31T01:00:59;15.40;99.90
26278;DHT22;14000;52.056;8.510;2023-07-31T01:03:24;15.40;99.90
26278;DHT22;14000;52.056;8.510;2023-07-31T01:06:11;15.40;99.90
26278;DHT22;14000;52.056;8.510;2023-07-31T01:08:54;15.40;99.90
26278;DHT22;14000;52.056;8.510;2023-07-31T01:11:28;15.30;99.90
26278;DHT22;14000;52.056;8.510;2023-07-31T01:13:55;15.30;99.90
26278;DHT22;14000;52.056;8.510;2023-07-31T01:16:21;15.20;99.90
26278;DHT22;14000;52.056;8.510;2023-07-31T01:18:46;15.30;99.90
26278;DHT22;14000;52.056;8.510;2023-07-31T01:26:40;15.20;99.90
26278;DHT22;14000;52.056;8.510;2023-07-31T01:29:17;15.10;99.90
26278;DHT22;14000;52.056;8.510;2023-07-31T01:31:48;15.00;99.90
26278;DHT22;14000;52.056;8.510;2023-07-31T01:34:17;15.00;99.90
26278;DHT22;14000;52.056;8.510;2023-07-31T01:36:43;14.90;99.90
26278;DHT22;14000;52.056;8.510;2023-07-31T01:39:09;14.90;99.90
26278;DHT22;14000;52.056;8.510;2023-07-31T01:41:34;14.80;99.90
26278;DHT22;14000;52.056;8.510;2023-07-31T01:44:00;14.80;99.90
26278;DHT22;14000;52.056;8.510;2023-07-31T01:46:26;14.80;99.90
26278;DHT22;14000;52.056;8.510;2023-07-31T01:48:51;14.70;99.90
26278;DHT22;14000;52.056;8.510;2023-07-31T01:51:17;14.80;99.90
26278;DHT22;14000;52.056;8.510;2023-07-31T01:53:42;14.70;99.90
26278;DHT22;14000;52.056;8.510;2023-07-31T01:56:08;14.70;99.90
26278;DHT22;14000;52.056;8.510;2023-07-31T01:58:33;14.60;99.90
26278;DHT22;14000;52.056;8.510;2023-07-31T02:00:59;14.60;99.90
26278;DHT22;14000;52.056;8.510;2023-07-31T02:03:24;14.60;99.90
26278;DHT22;14000;52.056;8.510;2023-07-31T02:05:50;14.50;99.90
26278;DHT22;14000;52.056;8.510;2023-07-31T02:08:16;14.40;99.90
26278;DHT22;14000;52.056;8.510;2023-07-31T02:10:42;14.40;99.90
26278;DHT22;14000;52.056;8.510;2023-07-31T02:13:08;14.30;99.90
26278;DHT22;14000;52.056;8.510;2023-07-31T02:15:34;14.40;99.90
26278;DHT22;14000;52.056;8.510;2023-07-31T02:17:59;14.30;99.90
26278;DHT22;14000;52.056;8.510;2023-07-31T02:20:25;14.30;99.90
26278;DHT22;14000;52.056;8.510;2023-07-31T02:22:50;14.30;99.90
26278;DHT22;14000;52.056;8.510;2023-07-31T02:25:16;14.30;99.90
26278;DHT22;14000;52.056;8.510;2023-07-31T02:27:42;14.30;99.90
26278;DHT22;14000;52.056;8.510;2023-07-31T02:30:08;14.30;99.90
26278;DHT22;14000;52.056;8.510;2023-07-31T02:32:33;14.30;99.90
26278;DHT22;14000;52.056;8.510;2023-07-31T02:34:59;14.30;99.90
26278;DHT22;14000;52.056;8.510;2023-07-31T02:37:25;14.20;99.90
26278;DHT22;14000;52.056;8.510;2023-07-31T02:39:51;14.20;99.90
26278;DHT22;14000;52.056;8.510;2023-07-31T02:42:16;14.30;99.90
26278;DHT22;14000;52.056;8.510;2023-07-31T02:44:42;14.20;99.90
26278;DHT22;14000;52.056;8.510;2023-07-31T02:47:08;14.20;99.90
26278;DHT22;14000;52.056;8.510;2023-07-31T02:49:33;14.30;99.90
26278;DHT22;14000;52.056;8.510;2023-07-31T02:51:59;14.20;99.90
26278;DHT22;14000;52.056;8.510;2023-07-31T02:54:24;14.20;99.90
26278;DHT22;14000;52.056;8.510;2023-07-31T02:56:50;14.20;99.90
26278;DHT22;14000;52.056;8.510;2023-07-31T02:59:17;14.30;99.90
26278;DHT22;14000;52.056;8.510;2023-07-31T03:01:43;14.30;99.90
26278;DHT22;14000;52.056;8.510;2023-07-31T03:04:09;14.30;99.90
26278;DHT22;14000;52.056;8.510;2023-07-31T03:06:34;14.30;99.90
26278;DHT22;14000;52.056;8.510;2023-07-31T03:09:00;14.20;99.90
26278;DHT22;14000;52.056;8.510;2023-07-31T03:11:26;14.30;99.90
26278;DHT22;14000;52.056;8.510;2023-07-31T03:13:51;14.30;99.90
26278;DHT22;14000;52.056;8.510;2023-07-31T03:16:17;14.30;99.90
26278;DHT22;14000;52.056;8.510;2023-07-31T03:18:43;14.30;99.90
26278;DHT22;14000;52.056;8.510;2023-07-31T03:21:08;14.40;99.90
26278;DHT22;14000;52.056;8.510;2023-07-31T03:23:34;14.50;99.90
26278;DHT22;14000;52.056;8.510;2023-07-31T03:26:02;14.50;99.90
26278;DHT22;14000;52.056;8.510;2023-07-31T03:28:29;14.60;99.90
26278;DHT22;14000;52.056;8.510;2023-07-31T03:30:55;14.60;99.90
26278;DHT22;14000;52.056;8.510;2023-07-31T03:33:21;14.70;99.90
26278;DHT22;14000;52.056;8.510;2023-07-31T03:35:46;14.70;99.90
26278;DHT22;14000;52.056;8.510;2023-07-31T03:38:12;14.90;99.90
26278;DHT22;14000;52.056;8.510;2023-07-31T03:40:38;14.90;99.90
26278;DHT22;14000;52.056;8.510;2023-07-31T03:43:05;15.00;99.90
26278;DHT22;14000;52.056;8.510;2023-07-31T03:45:31;15.00;99.90
26278;DHT22;14000;52.056;8.510;2023-07-31T03:47:56;15.10;99.90
26278;DHT22;14000;52.056;8.510;2023-07-31T03:50:22;15.10;99.90
26278;DHT22;14000;52.056;8.510;2023-07-31T03:52:48;15.20;99.90
26278;DHT22;14000;52.056;8.510;2023-07-31T03:55:14;15.20;99.90
26278;DHT22;14000;52.056;8.510;2023-07-31T03:57:39;15.20;99.90
26278;DHT22;14000;52.056;8.510;2023-07-31T04:00:05;15.30;99.90
26278;DHT22;14000;52.056;8.510;2023-07-31T04:02:31;15.30;99.90
26278;DHT22;14000;52.056;8.510;2023-07-31T04:04:56;15.30;99.90
26278;DHT22;14000;52.056;8.510;2023-07-31T04:07:22;15.30;99.90
26278;DHT22;14000;52.056;8.510;2023-07-31T04:09:47;15.30;99.90
26278;DHT22;14000;52.056;8.510;2023-07-31T04:12:13;15.30;99.90
26278;DHT22;14000;52.056;8.510;2023-07-31T04:14:39;15.30;99.90
26278;DHT22;14000;52.056;8.510;2023-07-31T04:17:04;15.30;99.90
26278;DHT22;14000;52.056;8.510;2023-07-31T04:19:30;15.30;99.90
26278;DHT22;14000;52.056;8.510;2023-07-31T04:21:55;15.30;99.90
26278;DHT22;14000;52.056;8.510;2023-07-31T04:24:21;15.30;99.90
26278;DHT22;14000;52.056;8.510;2023-07-31T04:26:53;15.30;99.90
26278;DHT22;14000;52.056;8.510;2023-07-31T04:29:19;15.30;99.90
26278;DHT22;14000;52.056;8.510;2023-07-31T04:31:45;15.30;99.90
26278;DHT22;14000;52.056;8.510;2023-07-31T04:34:10;15.30;99.90
26278;DHT22;14000;52.056;8.510;2023-07-31T04:36:37;15.30;99.90
26278;DHT22;14000;52.056;8.510;2023-07-31T04:39:02;15.30;99.90
26278;DHT22;14000;52.056;8.510;2023-07-31T04:41:28;15.30;99.90
26278;DHT22;14000;52.056;8.510;2023-07-31T04:43:54;15.30;99.90
26278;DHT22;14000;52.056;8.510;2023-07-31T04:46:19;15.30;99.90
26278;DHT22;14000;52.056;8.510;2023-07-31T04:48:45;15.30;99.90
26278;DHT22;14000;52.056;8.510;2023-07-31T04:51:10;15.30;99.90
26278;DHT22;14000;52.056;8.510;2023-07-31T04:53:36;15.30;99.90
26278;DHT22;14000;52.056;8.510;2023-07-31T04:56:02;15.30;99.90
26278;DHT22;14000;52.056;8.510;2023-07-31T04:58:27;15.30;99.90
26278;DHT22;14000;52.056;8.510;2023-07-31T05:00:53;15.30;99.90
26278;DHT22;14000;52.056;8.510;2023-07-31T05:03:18;15.30;99.90
26278;DHT22;14000;52.056;8.510;2023-07-31T05:05:44;15.30;99.90
26278;DHT22;14000;52.056;8.510;2023-07-31T05:08:10;15.20;99.90
26278;DHT22;14000;52.056;8.510;2023-07-31T05:10:35;15.20;99.90
26278;DHT22;14000;52.056;8.510;2023-07-31T05:13:01;15.30;99.90
26278;DHT22;14000;52.056;8.510;2023-07-31T05:15:26;15.30;99.90
26278;DHT22;14000;52.056;8.510;2023-07-31T05:17:52;15.30;99.90
26278;DHT22;14000;52.056;8.510;2023-07-31T05:20:17;15.20;99.90
26278;DHT22;14000;52.056;8.510;2023-07-31T05:22:43;15.30;99.90
26278;DHT22;14000;52.056;8.510;2023-07-31T05:25:09;15.30;99.90
26278;DHT22;14000;52.056;8.510;2023-07-31T05:27:34;15.30;99.90
26278;DHT22;14000;52.056;8.510;2023-07-31T05:30:00;15.30;99.90
26278;DHT22;14000;52.056;8.510;2023-07-31T05:32:26;15.30;99.90
26278;DHT22;14000;52.056;8.510;2023-07-31T05:34:52;15.40;99.90
26278;DHT22;14000;52.056;8.510;2023-07-31T05:37:18;15.40;99.90
26278;DHT22;14000;52.056;8.510;2023-07-31T05:39:43;15.40;99.90
26278;DHT22;14000;52.056;8.510;2023-07-31T05:42:09;15.30;99.90
26278;DHT22;14000;52.056;8.510;2023-07-31T05:44:35;15.40;99.90
26278;DHT22;14000;52.056;8.510;2023-07-31T05:47:00;15.40;99.90
26278;DHT22;14000;52.056;8.510;2023-07-31T05:49:26;15.40;99.90
26278;DHT22;14000;52.056;8.510;2023-07-31T05:51:51;15.50;99.90
26278;DHT22;14000;52.056;8.510;2023-07-31T05:54:17;15.40;99.90
26278;DHT22;14000;52.056;8.510;2023-07-31T05:56:43;15.40;99.90
26278;DHT22;14000;52.056;8.510;2023-07-31T05:59:09;15.40;99.90
26278;DHT22;14000;52.056;8.510;2023-07-31T06:01:35;15.40;99.90
26278;DHT22;14000;52.056;8.510;2023-07-31T06:04:01;15.40;99.90
26278;DHT22;14000;52.056;8.510;2023-07-31T06:06:28;15.40;99.90
26278;DHT22;14000;52.056;8.510;2023-07-31T06:08:54;15.40;99.90
26278;DHT22;14000;52.056;8.510;2023-07-31T06:11:22;15.40;99.90
26278;DHT22;14000;52.056;8.510;2023-07-31T06:13:48;15.40;99.90
26278;DHT22;14000;52.056;8.510;2023-07-31T06:16:15;15.40;99.90
26278;DHT22;14000;52.056;8.510;2023-07-31T06:18:42;15.40;99.90
26278;DHT22;14000;52.056;8.510;2023-07-31T06:21:09;15.50;99.90
26278;DHT22;14000;52.056;8.510;2023-07-31T06:23:35;15.50;99.90
26278;DHT22;14000;52.056;8.510;2023-07-31T06:26:00;15.50;99.90
26278;DHT22;14000;52.056;8.510;2023-07-31T06:28:29;15.60;99.90
26278;DHT22;14000;52.056;8.510;2023-07-31T06:30:56;15.50;99.90
26278;DHT22;14000;52.056;8.510;2023-07-31T06:33:21;15.60;99.90
26278;DHT22;14000;52.056;8.510;2023-07-31T06:35:47;15.60;99.90
26278;DHT22;14000;52.056;8.510;2023-07-31T06:38:12;15.70;99.90
26278;DHT22;14000;52.056;8.510;2023-07-31T06:40:38;15.60;99.90
26278;DHT22;14000;52.056;8.510;2023-07-31T06:43:04;15.70;99.90
26278;DHT22;14000;52.056;8.510;2023-07-31T06:45:36;15.70;99.90
26278;DHT22;14000;52.056;8.510;2023-07-31T06:48:03;15.60;99.90
26278;DHT22;14000;52.056;8.510;2023-07-31T06:50:29;15.70;99.90
26278;DHT22;14000;52.056;8.510;2023-07-31T06:52:55;15.60;99.90
26278;DHT22;14000;52.056;8.510;2023-07-31T06:55:21;15.60;99.90
26278;DHT22;14000;52.056;8.510;2023-07-31T06:57:49;15.60;99.90
26278;DHT22;14000;52.056;8.510;2023-07-31T07:00:15;15.50;99.90
26278;DHT22;14000;52.056;8.510;2023-07-31T07:02:41;15.50;99.90
26278;DHT22;14000;52.056;8.510;2023-07-31T07:05:07;15.60;99.90
26278;DHT22;14000;52.056;8.510;2023-07-31T07:07:33;15.60;99.90
26278;DHT22;14000;52.056;8.510;2023-07-31T07:09:59;15.60;99.90
26278;DHT22;14000;52.056;8.510;2023-07-31T07:12:25;15.60;99.90
26278;DHT22;14000;52.056;8.510;2023-07-31T07:14:51;15.80;99.90
26278;DHT22;14000;52.056;8.510;2023-07-31T07:17:18;15.70;99.90
26278;DHT22;14000;52.056;8.510;2023-07-31T07:19:44;15.80;99.90
26278;DHT22;14000;52.056;8.510;2023-07-31T07:22:11;15.70;99.90
26278;DHT22;14000;52.056;8.510;2023-07-31T07:24:37;15.70;99.90
26278;DHT22;14000;52.056;8.510;2023-07-31T07:27:03;15.80;99.90
26278;DHT22;14000;52.056;8.510;2023-07-31T07:29:28;15.80;99.90
26278;DHT22;14000;52.056;8.510;2023-07-31T07:31:54;15.80;99.90
26278;DHT22;14000;52.056;8.510;2023-07-31T07:34:22;15.80;99.90
26278;DHT22;14000;52.056;8.510;2023-07-31T07:36:48;15.90;99.90
26278;DHT22;14000;52.056;8.510;2023-07-31T07:39:14;15.90;99.90
26278;DHT22;14000;52.056;8.510;2023-07-31T07:41:39;15.90;99.90
26278;DHT22;14000;52.056;8.510;2023-07-31T07:44:05;15.90;99.90
26278;DHT22;14000;52.056;8.510;2023-07-31T07:46:31;15.80;99.90
26278;DHT22;14000;52.056;8.510;2023-07-31T07:48:56;15.80;99.90
26278;DHT22;14000;52.056;8.510;2023-07-31T07:51:22;15.80;99.90
26278;DHT22;14000;52.056;8.510;2023-07-31T07:53:47;15.80;99.90
26278;DHT22;14000;52.056;8.510;2023-07-31T07:56:13;15.80;99.90
26278;DHT22;14000;52.056;8.510;2023-07-31T07:58:38;15.80;99.90
26278;DHT22;14000;52.056;8.510;2023-07-31T08:01:04;15.80;99.90
26278;DHT22;14000;52.056;8.510;2023-07-31T08:03:29;15.80;99.90
26278;DHT22;14000;52.056;8.510;2023-07-31T08:06:01;15.80;99.90
26278;DHT22;14000;52.056;8.510;2023-07-31T08:08:28;15.90;99.90
26278;DHT22;14000;52.056;8.510;2023-07-31T08:10:53;16.00;99.90
26278;DHT22;14000;52.056;8.510;2023-07-31T08:13:19;15.90;99.90
26278;DHT22;14000;52.056;8.510;2023-07-31T08:15:45;15.90;99.90
26278;DHT22;14000;52.056;8.510;2023-07-31T08:18:12;16.00;99.90
26278;DHT22;14000;52.056;8.510;2023-07-31T08:20:38;16.00;99.90
26278;DHT22;14000;52.056;8.510;2023-07-31T08:23:03;16.00;99.90
26278;DHT22;14000;52.056;8.510;2023-07-31T08:25:29;16.00;99.90
26278;DHT22;14000;52.056;8.510;2023-07-31T08:27:55;16.10;99.90
26278;DHT22;14000;52.056;8.510;2023-07-31T08:30:21;16.10;99.90
26278;DHT22;14000;52.056;8.510;2023-07-31T08:32:47;16.10;99.90
26278;DHT22;14000;52.056;8.510;2023-07-31T08:35:12;16.20;99.90
26278;DHT22;14000;52.056;8.510;2023-07-31T08:37:38;16.20;99.90
26278;DHT22;14000;52.056;8.510;2023-07-31T08:40:05;16.20;99.90
26278;DHT22;14000;52.056;8.510;2023-07-31T08:42:31;16.30;99.90
26278;DHT22;14000;52.056;8.510;2023-07-31T08:44:58;16.40;99.90
26278;DHT22;14000;52.056;8.510;2023-07-31T08:47:26;16.40;99.90
26278;DHT22;14000;52.056;8.510;2023-07-31T08:49:53;16.40;99.90
26278;DHT22;14000;52.056;8.510;2023-07-31T08:52:19;16.50;99.90
26278;DHT22;14000;52.056;8.510;2023-07-31T08:54:45;16.40;99.90
26278;DHT22;14000;52.056;8.510;2023-07-31T08:57:11;16.40;99.90
26278;DHT22;14000;52.056;8.510;2023-07-31T08:59:38;16.40;99.90
26278;DHT22;14000;52.056;8.510;2023-07-31T09:02:08;16.40;99.90
26278;DHT22;14000;52.056;8.510;2023-07-31T09:04:34;16.40;99.90
26278;DHT22;14000;52.056;8.510;2023-07-31T09:07:01;16.40;99.90
26278;DHT22;14000;52.056;8.510;2023-07-31T09:09:29;16.40;99.90
26278;DHT22;14000;52.056;8.510;2023-07-31T09:11:55;16.40;99.90
26278;DHT22;14000;52.056;8.510;2023-07-31T09:14:21;16.30;99.90
26278;DHT22;14000;52.056;8.510;2023-07-31T09:16:57;16.30;99.90
26278;DHT22;14000;52.056;8.510;2023-07-31T09:19:35;16.30;99.90
26278;DHT22;14000;52.056;8.510;2023-07-31T09:22:05;16.40;99.90
26278;DHT22;14000;52.056;8.510;2023-07-31T09:24:33;16.50;99.90
26278;DHT22;14000;52.056;8.510;2023-07-31T09:27:01;16.50;99.90
26278;DHT22;14000;52.056;8.510;2023-07-31T09:29:28;16.40;99.90
26278;DHT22;14000;52.056;8.510;2023-07-31T09:31:54;16.40;99.90
26278;DHT22;14000;52.056;8.510;2023-07-31T09:34:27;16.50;99.90
26278;DHT22;14000;52.056;8.510;2023-07-31T09:36:53;16.40;99.90
26278;DHT22;14000;52.056;8.510;2023-07-31T09:39:19;16.40;99.90
26278;DHT22;14000;52.056;8.510;2023-07-31T09:41:53;16.40;99.90
26278;DHT22;14000;52.056;8.510;2023-07-31T09:44:19;16.40;99.90
26278;DHT22;14000;52.056;8.510;2023-07-31T09:46:45;16.50;99.90
26278;DHT22;14000;52.056;8.510;2023-07-31T09:49:12;16.60;99.90
26278;DHT22;14000;52.056;8.510;2023-07-31T09:51:39;16.50;99.90
26278;DHT22;14000;52.056;8.510;2023-07-31T09:54:15;16.60;99.90
26278;DHT22;14000;52.056;8.510;2023-07-31T09:56:46;16.60;99.90
26278;DHT22;14000;52.056;8.510;2023-07-31T09:59:13;16.60;99.90
26278;DHT22;14000;52.056;8.510;2023-07-31T10:01:41;16.50;99.90
26278;DHT22;14000;52.056;8.510;2023-07-31T10:04:08;16.50;99.90
26278;DHT22;14000;52.056;8.510;2023-07-31T10:06:36;16.50;99.90
26278;DHT22;14000;52.056;8.510;2023-07-31T10:09:07;16.50;99.90
26278;DHT22;14000;52.056;8.510;2023-07-31T10:11:41;16.50;99.90
26278;DHT22;14000;52.056;8.510;2023-07-31T10:14:07;16.60;99.90
26278;DHT22;14000;52.056;8.510;2023-07-31T10:16:37;16.60;99.90
26278;DHT22;14000;52.056;8.510;2023-07-31T10:19:03;16.50;99.90
26278;DHT22;14000;52.056;8.510;2023-07-31T10:21:31;16.50;99.90
26278;DHT22;14000;52.056;8.510;2023-07-31T10:24:02;16.50;99.90
26278;DHT22;14000;52.056;8.510;2023-07-31T10:26:29;16.50;99.90
26278;DHT22;14000;52.056;8.510;2023-07-31T10:28:56;16.50;99.90
26278;DHT22;14000;52.056;8.510;2023-07-31T10:31:23;16.50;99.90
26278;DHT22;14000;52.056;8.510;2023-07-31T10:33:51;16.60;99.90
26278;DHT22;14000;52.056;8.510;2023-07-31T10:36:18;16.60;99.90
26278;DHT22;14000;52.056;8.510;2023-07-31T10:38:45;16.60;99.90
26278;DHT22;14000;52.056;8.510;2023-07-31T10:41:11;16.70;99.90
26278;DHT22;14000;52.056;8.510;2023-07-31T10:43:37;16.70;99.90
26278;DHT22;14000;52.056;8.510;2023-07-31T10:46:07;16.70;99.90
26278;DHT22;14000;52.056;8.510;2023-07-31T10:48:34;16.70;99.90
26278;DHT22;14000;52.056;8.510;2023-07-31T10:51:00;16.70;99.90
26278;DHT22;14000;52.056;8.510;2023-07-31T10:53:30;16.70;99.90
26278;DHT22;14000;52.056;8.510;2023-07-31T10:56:04;16.60;99.90
26278;DHT22;14000;52.056;8.510;2023-07-31T10:58:30;16.60;99.90
26278;DHT22;14000;52.056;8.510;2023-07-31T11:01:01;16.70;99.90
26278;DHT22;14000;52.056;8.510;2023-07-31T11:03:47;16.60;99.90
26278;DHT22;14000;52.056;8.510;2023-07-31T11:06:15;16.60;99.90
26278;DHT22;14000;52.056;8.510;2023-07-31T11:08:43;16.60;99.90
26278;DHT22;14000;52.056;8.510;2023-07-31T11:11:17;16.60;99.90
26278;DHT22;14000;52.056;8.510;2023-07-31T11:13:51;16.60;99.90
26278;DHT22;14000;52.056;8.510;2023-07-31T11:16:19;16.60;99.90
26278;DHT22;14000;52.056;8.510;2023-07-31T11:18:46;16.60;99.90
26278;DHT22;14000;52.056;8.510;2023-07-31T11:21:18;16.70;99.90
26278;DHT22;14000;52.056;8.510;2023-07-31T11:23:56;16.70;99.90
26278;DHT22;14000;52.056;8.510;2023-07-31T11:26:23;16.70;99.90
26278;DHT22;14000;52.056;8.510;2023-07-31T11:28:49;16.70;99.90
26278;DHT22;14000;52.056;8.510;2023-07-31T11:31:16;16.70;99.90
26278;DHT22;14000;52.056;8.510;2023-07-31T11:33:42;16.60;99.90
26278;DHT22;14000;52.056;8.510;2023-07-31T11:36:16;16.70;99.90
26278;DHT22;14000;52.056;8.510;2023-07-31T11:38:42;16.60;99.90
26278;DHT22;14000;52.056;8.510;2023-07-31T11:41:08;16.70;99.90
26278;DHT22;14000;52.056;8.510;2023-07-31T11:43:34;16.70;99.90
26278;DHT22;14000;52.056;8.510;2023-07-31T11:46:02;16.80;99.90
26278;DHT22;14000;52.056;8.510;2023-07-31T11:48:33;16.80;99.90
26278;DHT22;14000;52.056;8.510;2023-07-31T11:51:10;16.80;99.90
26278;DHT22;14000;52.056;8.510;2023-07-31T11:53:47;16.90;99.90
26278;DHT22;14000;52.056;8.510;2023-07-31T11:56:17;16.90;99.90
26278;DHT22;14000;52.056;8.510;2023-07-31T11:58:44;17.00;99.90
26278;DHT22;14000;52.056;8.510;2023-07-31T12:01:11;17.00;99.90
26278;DHT22;14000;52.056;8.510;2023-07-31T12:03:37;17.00;99.90
26278;DHT22;14000;52.056;8.510;2023-07-31T12:06:03;17.00;99.90
26278;DHT22;14000;52.056;8.510;2023-07-31T12:08:29;17.00;99.90
26278;DHT22;14000;52.056;8.510;2023-07-31T12:11:05;17.00;99.90
26278;DHT22;14000;52.056;8.510;2023-07-31T12:13:32;17.00;99.90
26278;DHT22;14000;52.056;8.510;2023-07-31T12:16:00;17.00;99.90
26278;DHT22;14000;52.056;8.510;2023-07-31T12:18:29;17.10;99.90
26278;DHT22;14000;52.056;8.510;2023-07-31T12:20:56;17.10;99.90
26278;DHT22;14000;52.056;8.510;2023-07-31T12:23:26;17.20;99.90
26278;DHT22;14000;52.056;8.510;2023-07-31T12:26:12;17.20;99.90
26278;DHT22;14000;52.056;8.510;2023-07-31T12:28:45;17.20;99.90
26278;DHT22;14000;52.056;8.510;2023-07-31T12:31:16;17.20;99.90
26278;DHT22;14000;52.056;8.510;2023-07-31T12:33:46;17.20;99.90
26278;DHT22;14000;52.056;8.510;2023-07-31T12:36:17;17.10;99.90
26278;DHT22;14000;52.056;8.510;2023-07-31T12:38:43;17.10;99.90
26278;DHT22;14000;52.056;8.510;2023-07-31T12:41:09;17.10;99.90
26278;DHT22;14000;52.056;8.510;2023-07-31T12:43:40;17.00;99.90
26278;DHT22;14000;52.056;8.510;2023-07-31T12:46:06;17.00;99.90
26278;DHT22;14000;52.056;8.510;2023-07-31T12:48:33;17.00;99.90
26278;DHT22;14000;52.056;8.510;2023-07-31T12:50:59;17.00;99.90
26278;DHT22;14000;52.056;8.510;2023-07-31T12:53:24;16.90;99.90
26278;DHT22;14000;52.056;8.510;2023-07-31T12:55:50;16.90;99.90
26278;DHT22;14000;52.056;8.510;2023-07-31T12:58:15;16.90;99.90
26278;DHT22;14000;52.056;8.510;2023-07-31T13:00:41;16.90;99.90
26278;DHT22;14000;52.056;8.510;2023-07-31T13:03:07;16.90;99.90
26278;DHT22;14000;52.056;8.510;2023-07-31T13:05:33;16.90;99.90
26278;DHT22;14000;52.056;8.510;2023-07-31T13:07:59;17.00;99.90
26278;DHT22;14000;52.056;8.510;2023-07-31T13:10:24;17.10;99.90
26278;DHT22;14000;52.056;8.510;2023-07-31T13:12:52;17.10;99.90
26278;DHT22;14000;52.056;8.510;2023-07-31T13:15:17;17.20;99.90
26278;DHT22;14000;52.056;8.510;2023-07-31T13:17:43;17.30;99.90
26278;DHT22;14000;52.056;8.510;2023-07-31T13:20:09;17.50;99.90
26278;DHT22;14000;52.056;8.510;2023-07-31T13:22:34;17.40;99.90
26278;DHT22;14000;52.056;8.510;2023-07-31T13:25:00;17.40;99.90
26278;DHT22;14000;52.056;8.510;2023-07-31T13:27:26;17.50;99.90
26278;DHT22;14000;52.056;8.510;2023-07-31T13:29:51;17.70;99.90
26278;DHT22;14000;52.056;8.510;2023-07-31T13:32:18;17.80;99.90
26278;DHT22;14000;52.056;8.510;2023-07-31T13:34:45;17.90;99.90
26278;DHT22;14000;52.056;8.510;2023-07-31T13:37:11;17.80;99.90
26278;DHT22;14000;52.056;8.510;2023-07-31T13:39:36;17.70;99.90
26278;DHT22;14000;52.056;8.510;2023-07-31T13:42:04;17.70;99.90
26278;DHT22;14000;52.056;8.510;2023-07-31T13:44:32;17.70;99.90
26278;DHT22;14000;52.056;8.510;2023-07-31T13:46:57;17.80;99.90
26278;DHT22;14000;52.056;8.510;2023-07-31T13:49:23;17.80;99.90
26278;DHT22;14000;52.056;8.510;2023-07-31T13:51:48;17.90;99.90
26278;DHT22;14000;52.056;8.510;2023-07-31T13:54:14;18.00;99.90
26278;DHT22;14000;52.056;8.510;2023-07-31T13:56:41;18.10;99.90
26278;DHT22;14000;52.056;8.510;2023-07-31T13:59:06;18.10;99.90
26278;DHT22;14000;52.056;8.510;2023-07-31T14:01:32;18.20;99.90
26278;DHT22;14000;52.056;8.510;2023-07-31T14:03:58;18.10;99.90
26278;DHT22;14000;52.056;8.510;2023-07-31T14:06:23;18.10;99.90
26278;DHT22;14000;52.056;8.510;2023-07-31T14:08:49;18.20;99.90
26278;DHT22;14000;52.056;8.510;2023-07-31T14:11:15;18.30;99.90
26278;DHT22;14000;52.056;8.510;2023-07-31T14:13:40;18.20;99.90
26278;DHT22;14000;52.056;8.510;2023-07-31T14:16:06;18.20;99.90
26278;DHT22;14000;52.056;8.510;2023-07-31T14:18:32;18.20;99.90
26278;DHT22;14000;52.056;8.510;2023-07-31T14:20:57;18.20;99.90
26278;DHT22;14000;52.056;8.510;2023-07-31T14:23:23;18.20;99.90
26278;DHT22;14000;52.056;8.510;2023-07-31T14:25:48;18.20;99.90
26278;DHT22;14000;52.056;8.510;2023-07-31T14:28:14;18.10;99.90
26278;DHT22;14000;52.056;8.510;2023-07-31T14:30:39;18.10;99.90
26278;DHT22;14000;52.056;8.510;2023-07-31T14:33:05;18.20;99.90
26278;DHT22;14000;52.056;8.510;2023-07-31T14:35:31;18.20;99.90
26278;DHT22;14000;52.056;8.510;2023-07-31T14:37:56;18.20;99.90
26278;DHT22;14000;52.056;8.510;2023-07-31T14:40:22;18.20;99.90
26278;DHT22;14000;52.056;8.510;2023-07-31T14:42:47;18.20;99.90
26278;DHT22;14000;52.056;8.510;2023-07-31T14:45:13;18.20;99.90
26278;DHT22;14000;52.056;8.510;2023-07-31T14:47:39;18.20;99.90
26278;DHT22;14000;52.056;8.510;2023-07-31T14:50:05;18.20;99.90
26278;DHT22;14000;52.056;8.510;2023-07-31T14:52:31;18.30;99.90
26278;DHT22;14000;52.056;8.510;2023-07-31T14:54:56;18.30;99.90
26278;DHT22;14000;52.056;8.510;2023-07-31T14:57:22;18.20;99.90
26278;DHT22;14000;52.056;8.510;2023-07-31T14:59:47;18.30;99.90
26278;DHT22;14000;52.056;8.510;2023-07-31T15:02:15;18.40;99.90
26278;DHT22;14000;52.056;8.510;2023-07-31T15:04:41;18.50;99.90
26278;DHT22;14000;52.056;8.510;2023-07-31T15:07:07;18.60;99.90
26278;DHT22;14000;52.056;8.510;2023-07-31T15:09:32;18.60;99.90
26278;DHT22;14000;52.056;8.510;2023-07-31T15:11:58;18.70;99.90
26278;DHT22;14000;52.056;8.510;2023-07-31T15:14:24;18.70;99.90
26278;DHT22;14000;52.056;8.510;2023-07-31T15:16:50;18.70;99.90
26278;DHT22;14000;52.056;8.510;2023-07-31T15:19:16;18.70;99.90
26278;DHT22;14000;52.056;8.510;2023-07-31T15:21:41;18.70;99.90
26278;DHT22;14000;52.056;8.510;2023-07-31T15:24:07;18.70;99.90
26278;DHT22;14000;52.056;8.510;2023-07-31T15:26:33;18.80;99.90
26278;DHT22;14000;52.056;8.510;2023-07-31T15:29:05;18.80;99.90
26278;DHT22;14000;52.056;8.510;2023-07-31T15:31:35;18.80;99.90